createdAt,value
2017-04-29T00:00:11.996Z,73.90
2017-04-29T00:02:41.216Z,74.20
2017-04-29T00:05:10.206Z,74.90
2017-04-29T00:07:39.253Z,74.60
2017-04-29T00:10:08.231Z,74.40
2017-04-29T00:12:37.197Z,73.90
2017-04-29T00:18:18.876Z,73.20
2017-04-29T00:20:48.820Z,73.20
2017-04-29T00:23:17.883Z,73.40
2017-04-29T00:25:47.188Z,73.80
2017-04-29T00:28:16.165Z,74.20
2017-04-29T00:30:45.915Z,74.10
2017-04-29T00:33:14.911Z,73.40
2017-04-29T00:35:43.914Z,72.50
2017-04-29T00:38:12.912Z,71.70
2017-04-29T00:40:41.932Z,73.10
2017-04-29T00:43:11.955Z,73.00
2017-04-29T00:45:41.689Z,73.20
2017-04-29T00:48:10.681Z,73.20
2017-04-29T00:50:40.821Z,73.10
2017-04-29T00:53:09.832Z,72.50
2017-04-29T00:55:38.837Z,73.40
2017-04-29T00:58:07.839Z,72.50
2017-04-29T01:00:36.836Z,72.60
2017-04-29T01:03:05.826Z,72.70
2017-04-29T01:05:35.159Z,72.50
2017-04-29T01:08:04.114Z,72.90
2017-04-29T01:10:33.071Z,72.20
2017-04-29T01:13:03.188Z,72.30
2017-04-29T01:15:32.159Z,71.60
2017-04-29T01:18:02.118Z,72.10
2017-04-29T01:20:31.108Z,72.30
2017-04-29T01:23:00.462Z,73.20
2017-04-29T01:25:29.446Z,72.50
2017-04-29T01:27:58.481Z,71.80
2017-04-29T01:30:27.479Z,71.80
2017-04-29T01:32:56.470Z,71.80
2017-04-29T01:35:25.840Z,71.30
2017-04-29T01:37:55.858Z,71.40
2017-04-29T01:40:24.910Z,71.00
2017-04-29T01:42:54.644Z,71.40
2017-04-29T01:45:23.632Z,71.20
2017-04-29T01:47:52.650Z,71.00
2017-04-29T01:50:21.639Z,71.90
2017-04-29T01:52:50.948Z,71.80
2017-04-29T01:55:19.972Z,71.10
2017-04-29T01:57:49.049Z,71.30
2017-04-29T02:00:18.032Z,71.60
2017-04-29T02:02:47.058Z,72.50
2017-04-29T02:05:16.070Z,73.00
2017-04-29T02:07:45.860Z,73.20
2017-04-29T02:10:15.284Z,73.40
2017-04-29T02:12:44.264Z,72.20
2017-04-29T02:15:13.987Z,71.90
2017-04-29T02:17:43.703Z,71.20
2017-04-29T02:20:13.466Z,71.10
2017-04-29T02:22:42.437Z,70.90
2017-04-29T02:25:11.456Z,71.50
2017-04-29T02:27:40.836Z,72.30
2017-04-29T02:30:09.849Z,71.30
2017-04-29T02:32:38.799Z,71.20
2017-04-29T02:35:07.772Z,70.50
2017-04-29T02:37:37.549Z,72.20
2017-04-29T02:40:06.549Z,70.70
2017-04-29T02:42:35.529Z,72.00
2017-04-29T04:45:25.107Z,73.90
2017-04-29T04:47:56.709Z,73.70
2017-04-29T04:50:26.918Z,73.80
2017-04-29T04:52:57.818Z,73.50
2017-04-29T04:55:27.291Z,73.60
2017-04-29T04:57:56.268Z,73.40
2017-04-29T05:00:25.212Z,73.80
2017-04-29T05:02:54.902Z,72.60
2017-04-29T05:05:23.887Z,74.30
2017-04-29T05:07:52.855Z,73.30
2017-04-29T05:10:21.798Z,74.10
2017-04-29T05:12:51.801Z,74.40
2017-04-29T05:15:20.753Z,75.10
2017-04-29T05:17:49.687Z,74.40
2017-04-29T05:20:19.392Z,73.40
2017-04-29T05:22:49.105Z,73.40
2017-04-29T05:25:18.047Z,72.80
2017-04-29T05:27:46.991Z,73.10
2017-04-29T05:30:17.006Z,73.00
2017-04-29T05:32:46.697Z,72.10
2017-04-29T05:35:15.657Z,71.40
2017-04-29T05:37:44.618Z,71.90
2017-04-29T05:40:13.576Z,71.60
2017-04-29T05:42:42.543Z,70.70
2017-04-29T05:45:11.523Z,70.80
2017-04-29T05:47:40.969Z,71.80
2017-04-29T05:50:10.683Z,71.80
2017-04-29T05:52:40.434Z,72.70
2017-04-29T05:55:09.398Z,72.80
2017-04-29T05:57:38.333Z,72.30
2017-04-29T06:00:07.806Z,71.90
2017-04-29T06:02:36.771Z,71.30
2017-04-29T06:05:06.477Z,71.50
2017-04-29T06:07:36.169Z,72.50
2017-04-29T06:10:05.187Z,71.60
2017-04-29T06:12:34.164Z,73.00
2017-04-29T06:15:03.859Z,70.70
2017-04-29T06:17:33.196Z,72.30
2017-04-29T06:20:02.134Z,71.90
2017-04-29T06:22:31.097Z,71.00
2017-04-29T06:25:00.074Z,70.30
2017-04-29T06:27:29.016Z,71.40
2017-04-29T06:29:57.981Z,71.80
2017-04-29T06:32:26.930Z,71.90
2017-04-29T06:34:56.219Z,72.60
2017-04-29T06:37:25.922Z,72.60
2017-04-29T06:39:54.880Z,71.60
2017-04-29T06:42:23.823Z,68.90
2017-04-29T06:44:52.780Z,67.80
2017-04-29T06:47:21.732Z,67.20
2017-04-29T06:49:50.681Z,68.50
2017-04-29T06:52:20.006Z,67.30
2017-04-29T06:54:49.008Z,68.20
2017-04-29T06:57:17.954Z,66.30
2017-04-29T06:59:46.894Z,65.40
2017-04-29T07:02:15.856Z,63.70
2017-04-29T07:04:45.679Z,62.90
2017-04-29T07:07:14.622Z,62.30
2017-04-29T07:09:44.047Z,63.50
2017-04-29T07:12:13.010Z,65.60
2017-04-29T07:14:41.964Z,66.30
2017-04-29T07:17:10.925Z,65.50
2017-04-29T07:19:40.624Z,66.50
2017-04-29T07:22:09.596Z,65.50
2017-04-29T07:24:38.575Z,65.70
2017-04-29T07:27:07.838Z,64.60
2017-04-29T07:29:36.780Z,66.30
2017-04-29T07:32:05.768Z,63.00
2017-04-29T07:34:34.707Z,61.70
2017-04-29T07:37:04.407Z,59.70
2017-04-29T07:39:33.375Z,59.20
2017-04-29T07:42:02.315Z,59.00
2017-04-29T07:44:31.600Z,59.50
2017-04-29T07:47:01.335Z,58.50
2017-04-29T07:49:30.306Z,57.00
2017-04-29T07:51:59.278Z,55.00
2017-04-29T07:54:28.238Z,53.40
2017-04-29T07:56:57.232Z,52.40
2017-04-29T07:59:26.195Z,54.90
2017-04-29T08:01:56.367Z,56.30
2017-04-29T08:04:26.078Z,54.70
2017-04-29T08:06:55.023Z,54.00
2017-04-29T08:09:24.043Z,53.80
2017-04-29T08:11:53.123Z,51.20
2017-04-29T08:14:22.093Z,51.10
2017-04-29T08:16:51.048Z,52.50
2017-04-29T08:19:19.985Z,52.60
2017-04-29T08:21:48.942Z,54.50
2017-04-29T08:24:18.337Z,53.40
2017-04-29T08:26:47.288Z,54.40
2017-04-29T08:29:16.248Z,54.10
2017-04-29T08:31:45.212Z,51.70
2017-04-29T08:34:14.204Z,51.40
2017-04-29T08:36:43.163Z,52.80
2017-04-29T08:39:12.913Z,50.10
2017-04-29T08:41:42.144Z,48.70
2017-04-29T08:44:11.128Z,49.50
2017-04-29T08:46:40.121Z,51.10
2017-04-29T08:49:09.337Z,49.40
2017-04-29T08:51:38.321Z,53.00
2017-04-29T08:54:07.377Z,49.60
2017-04-29T08:56:36.304Z,50.40
2017-04-29T08:59:05.551Z,51.20
2017-04-29T09:01:35.261Z,51.90
2017-04-29T09:04:04.271Z,52.30
2017-04-29T09:06:33.268Z,52.10
2017-04-29T09:09:02.223Z,53.40
2017-04-29T09:11:31.936Z,55.10
2017-04-29T09:14:01.668Z,55.70
2017-04-29T09:16:30.667Z,55.70
2017-04-29T09:18:59.796Z,55.90
2017-04-29T09:21:29.127Z,55.30
2017-04-29T09:23:58.833Z,54.80
2017-04-29T09:26:27.800Z,51.80
2017-04-29T09:28:56.761Z,51.10
2017-04-29T09:31:25.748Z,52.20
2017-04-29T09:33:54.715Z,50.40
2017-04-29T09:36:24.406Z,53.10
2017-04-29T09:38:54.462Z,52.50
2017-04-29T09:41:23.437Z,51.90
2017-04-29T09:43:52.407Z,53.60
2017-04-29T09:46:22.104Z,54.20
2017-04-29T09:48:51.059Z,54.20
2017-04-29T09:51:20.020Z,53.00
2017-04-29T09:53:48.232Z,53.00
2017-04-29T09:56:17.596Z,53.70
2017-04-29T09:58:46.563Z,51.30
2017-04-29T10:01:15.539Z,48.40
2017-04-29T10:03:44.527Z,47.60
2017-04-29T10:06:13.509Z,47.80
2017-04-29T10:08:42.476Z,46.80
2017-04-29T10:11:11.484Z,45.70
2017-04-29T10:13:40.847Z,46.30
2017-04-29T10:16:09.852Z,45.70
2017-04-29T10:18:38.803Z,46.80
2017-04-29T10:21:07.755Z,46.70
2017-04-29T10:23:36.731Z,46.90
2017-04-29T10:26:05.851Z,47.00
2017-04-29T10:28:34.823Z,48.10
2017-04-29T10:31:04.075Z,49.10
2017-04-29T10:33:33.026Z,49.40
2017-04-29T10:36:02.017Z,48.60
2017-04-29T10:38:30.967Z,49.20
2017-04-29T10:40:59.948Z,49.60
2017-04-29T10:43:29.675Z,47.80
2017-04-29T10:45:58.701Z,46.80
2017-04-29T10:48:28.054Z,44.70
2017-04-29T10:50:57.744Z,43.90
2017-04-29T10:53:26.685Z,41.70
2017-04-29T10:55:55.668Z,43.10
2017-04-29T10:58:24.640Z,44.50
2017-04-29T11:00:53.632Z,43.00
2017-04-29T11:03:23.543Z,43.90
2017-04-29T11:05:53.566Z,43.30
2017-04-29T11:08:23.325Z,44.50
2017-04-29T11:10:52.326Z,44.50
2017-04-29T11:13:21.306Z,44.50
2017-04-29T11:15:50.283Z,46.10
2017-04-29T11:18:19.705Z,45.30
2017-04-29T11:20:48.986Z,46.10
2017-04-29T11:23:17.984Z,46.10
2017-04-29T11:25:46.952Z,46.60
2017-04-29T11:28:15.972Z,46.20
2017-04-29T11:30:44.990Z,45.50
2017-04-29T11:33:14.003Z,44.30
2017-04-29T11:35:44.023Z,44.00
2017-04-29T11:38:13.777Z,43.60
2017-04-29T11:40:42.756Z,42.60
2017-04-29T11:43:11.727Z,41.80
2017-04-29T11:45:40.749Z,43.00
2017-04-29T11:48:09.739Z,43.60
2017-04-29T11:50:38.738Z,42.50
2017-04-29T11:53:34.854Z,41.30
2017-04-29T11:56:04.686Z,42.90
2017-04-29T11:58:34.266Z,42.40
2017-04-29T12:01:03.438Z,43.00
2017-04-29T12:03:32.466Z,43.20
2017-04-29T12:06:01.569Z,42.10
2017-04-29T12:08:30.616Z,41.80
2017-04-29T12:10:59.652Z,42.70
2017-04-29T12:13:28.668Z,43.30
2017-04-29T12:15:57.957Z,43.40
2017-04-29T12:18:26.985Z,45.40
2017-04-29T12:20:56.792Z,48.10
2017-04-29T12:23:25.827Z,48.50
2017-04-29T12:25:54.951Z,49.00
2017-04-29T12:28:23.987Z,49.60
2017-04-29T12:30:53.691Z,50.70
2017-04-29T12:33:23.818Z,50.80
2017-04-29T12:35:53.624Z,50.20
2017-04-29T12:38:23.469Z,50.90
2017-04-29T12:40:52.459Z,51.40
2017-04-29T12:43:21.456Z,52.40
2017-04-29T12:45:50.478Z,53.20
2017-04-29T12:48:19.526Z,53.30
2017-04-29T12:50:48.925Z,53.80
2017-04-29T12:53:17.988Z,53.10
2017-04-29T12:55:47.827Z,53.00
2017-04-29T12:58:16.844Z,53.90
2017-04-29T13:00:45.857Z,54.60
2017-04-29T13:03:14.870Z,55.00
2017-04-29T13:05:43.896Z,55.90
2017-04-29T13:08:13.189Z,56.80
2017-04-29T13:10:42.164Z,56.40
2017-04-29T13:13:11.911Z,56.80
2017-04-29T13:15:40.875Z,57.70
2017-04-29T13:18:10.616Z,56.80
2017-04-29T13:20:39.629Z,56.10
2017-04-29T13:23:08.621Z,56.60
2017-04-29T13:25:37.930Z,54.40
2017-04-29T13:28:06.921Z,54.20
2017-04-29T13:30:35.886Z,54.20
2017-04-29T13:33:04.881Z,54.40
2017-04-29T13:35:37.644Z,51.90
2017-04-29T13:38:06.640Z,52.70
2017-04-29T13:40:35.646Z,52.20
2017-04-29T13:43:04.888Z,52.70
2017-04-29T13:45:33.895Z,52.10
2017-04-29T13:48:03.635Z,49.90
2017-04-29T13:50:32.647Z,50.70
2017-04-29T13:53:01.678Z,50.70
2017-04-29T13:55:30.718Z,52.10
2017-04-29T13:57:59.759Z,51.70
2017-04-29T14:00:29.071Z,50.40
2017-04-29T14:02:58.846Z,51.90
2017-04-29T14:05:27.851Z,49.50
2017-04-29T14:07:56.847Z,50.30
2017-04-29T14:10:25.861Z,48.00
2017-04-29T14:12:54.871Z,48.10
2017-04-29T14:15:23.911Z,47.20
2017-04-29T14:17:53.267Z,46.10
2017-04-29T14:20:22.246Z,45.50
2017-04-29T14:22:51.336Z,45.30
2017-04-29T14:25:20.556Z,45.50
2017-04-29T14:27:49.582Z,44.80
2017-04-29T14:30:18.564Z,45.90
2017-04-29T14:32:48.091Z,49.00
2017-04-29T14:35:17.540Z,51.60
2017-04-29T14:37:46.522Z,53.30
2017-04-29T14:40:16.256Z,53.10
2017-04-29T14:42:45.240Z,53.30
2017-04-29T14:45:14.269Z,53.50
2017-04-29T14:47:43.398Z,52.50
2017-04-29T14:50:13.263Z,52.50
2017-04-29T14:52:42.561Z,52.40
2017-04-29T14:55:11.648Z,51.50
2017-04-29T14:57:40.683Z,50.80
2017-04-29T15:00:09.659Z,51.00
2017-04-29T15:02:38.645Z,51.00
2017-04-29T15:05:11.966Z,51.30
2017-04-29T15:07:41.294Z,51.60
2017-04-29T15:12:56.681Z,49.40
2017-04-29T15:22:04.873Z,50.50
2017-04-29T15:24:36.932Z,50.30
2017-04-29T15:33:10.542Z,53.00
2017-04-29T15:36:05.189Z,53.00
2017-04-29T15:38:35.443Z,53.80
2017-04-29T15:44:13.100Z,55.80
2017-04-29T15:46:42.219Z,56.70
2017-04-29T15:51:53.602Z,53.90
2017-04-29T15:54:29.626Z,52.90
2017-04-29T15:57:03.930Z,52.90
2017-04-29T16:00:00.097Z,53.10
2017-04-29T16:02:34.425Z,53.60
2017-04-29T16:09:03.160Z,54.20
2017-04-29T16:12:11.781Z,54.20
2017-04-29T16:20:59.199Z,54.30
2017-04-29T16:29:32.988Z,54.40
2017-04-29T16:32:11.148Z,53.80
2017-04-29T16:34:44.753Z,53.90
2017-04-29T16:40:16.925Z,53.10
2017-04-29T16:42:49.838Z,53.60
2017-04-29T16:54:30.667Z,53.10
2017-04-29T17:00:51.354Z,52.90
2017-04-29T17:03:25.532Z,53.50
2017-04-29T17:12:34.030Z,52.70
2017-04-29T17:24:39.149Z,52.90
2017-04-29T17:50:25.871Z,53.30
2017-04-29T17:56:31.391Z,54.30
2017-04-29T18:02:20.043Z,53.60
2017-04-29T18:08:04.764Z,52.50
2017-04-29T18:10:34.804Z,53.10
2017-04-29T18:13:32.148Z,53.50
2017-04-29T18:16:18.013Z,54.00
2017-04-29T18:35:31.308Z,56.00
2017-04-29T18:38:02.111Z,55.60
2017-04-29T18:40:39.710Z,55.80
2017-04-29T18:43:14.043Z,56.00
2017-04-29T18:58:38.202Z,58.20
2017-04-29T19:01:08.321Z,58.50
2017-04-29T19:03:37.644Z,58.50
2017-04-29T19:06:07.177Z,58.50
2017-04-29T19:08:36.278Z,59.30
2017-04-29T19:11:05.319Z,59.40
2017-04-29T19:13:34.447Z,59.80
2017-04-29T19:16:03.620Z,59.40
2017-04-29T19:18:32.675Z,59.20
2017-04-29T19:21:01.751Z,59.40
2017-04-29T19:23:31.288Z,59.70
2017-04-29T19:26:00.331Z,61.20
2017-04-29T19:28:29.447Z,60.80
2017-04-29T19:30:58.516Z,60.70
2017-04-29T19:33:28.331Z,61.40
2017-04-29T19:36:00.255Z,61.50
2017-04-29T19:38:29.392Z,61.20
2017-04-29T19:40:59.110Z,61.80
2017-04-29T19:43:28.584Z,61.70
2017-04-29T19:45:59.774Z,62.40
2017-04-29T19:48:31.010Z,62.10
2017-04-29T19:51:05.372Z,62.00
2017-04-29T19:53:34.696Z,61.60
2017-04-29T19:56:03.759Z,61.90
2017-04-29T19:58:32.811Z,62.20
2017-04-29T20:01:01.978Z,62.30
2017-04-29T20:03:31.107Z,62.60
2017-04-29T20:06:00.143Z,62.60
2017-04-29T20:08:29.534Z,63.10
2017-04-29T20:10:58.584Z,62.70
2017-04-29T20:13:27.661Z,62.80
2017-04-29T20:15:57.495Z,63.00
2017-04-29T20:18:26.485Z,62.70
2017-04-29T20:20:55.593Z,63.00
2017-04-29T20:23:24.634Z,63.00
2017-04-29T20:25:53.718Z,63.90
2017-04-29T20:28:22.726Z,63.70
2017-04-29T20:30:52.231Z,63.70
2017-04-29T20:33:21.244Z,63.70
2017-04-29T20:35:50.297Z,63.40
2017-04-29T20:38:19.328Z,63.10
2017-04-29T20:40:48.442Z,63.20
2017-04-29T20:43:17.764Z,63.30
2017-04-29T20:45:46.795Z,63.60
2017-04-29T20:48:15.847Z,63.70
2017-04-29T20:50:44.887Z,64.40
2017-04-29T20:53:13.953Z,64.90
2017-04-29T20:55:42.956Z,65.50
2017-04-29T20:58:11.940Z,65.70
2017-04-29T21:00:41.278Z,65.80
2017-04-29T21:03:11.048Z,65.20
2017-04-29T21:05:40.636Z,64.90
2017-04-29T21:08:09.654Z,64.90
2017-04-29T21:10:38.679Z,64.60
2017-04-29T21:13:08.413Z,64.80
2017-04-29T21:15:41.175Z,65.20
2017-04-29T21:18:10.985Z,65.40
2017-04-29T21:20:40.051Z,65.70
2017-04-29T21:23:09.112Z,66.10
2017-04-29T21:25:38.126Z,67.30
2017-04-29T21:28:07.171Z,66.90
2017-04-29T21:30:36.148Z,67.40
2017-04-29T21:33:05.899Z,67.30
2017-04-29T21:35:34.940Z,67.40
2017-04-29T21:38:03.933Z,67.40
2017-04-29T21:40:33.976Z,67.20
2017-04-29T21:43:02.966Z,66.60
2017-04-29T21:45:31.948Z,66.90
2017-04-29T21:48:00.934Z,67.20
2017-04-29T21:50:30.682Z,67.30
2017-04-29T21:52:59.698Z,67.00
2017-04-29T21:55:28.701Z,66.80
2017-04-29T21:57:57.950Z,67.10
2017-04-29T22:00:27.018Z,66.90
2017-04-29T22:02:56.839Z,67.00
2017-04-29T22:05:25.864Z,67.90
2017-04-29T22:07:54.894Z,67.90
2017-04-29T22:10:23.904Z,67.90
2017-04-29T22:12:53.692Z,67.70
2017-04-29T22:15:22.693Z,67.90
2017-04-29T22:17:51.802Z,68.70
2017-04-29T22:20:21.836Z,69.00
2017-04-29T22:22:50.878Z,68.70
2017-04-29T22:25:19.838Z,68.70
2017-04-29T22:27:48.814Z,69.00
2017-04-29T22:30:17.887Z,69.00
2017-04-29T22:32:47.670Z,69.10
2017-04-29T22:35:16.686Z,69.20
2017-04-29T22:37:46.748Z,68.60
2017-04-29T22:40:15.751Z,69.20
2017-04-29T22:42:44.737Z,69.50
2017-04-29T22:45:13.733Z,69.60
2017-04-29T22:47:42.860Z,69.80
2017-04-29T22:50:11.844Z,69.60
2017-04-29T22:52:40.835Z,69.40
2017-04-29T22:55:10.197Z,69.30
2017-04-29T22:57:39.178Z,69.50
2017-04-29T23:00:08.180Z,69.90
2017-04-29T23:02:37.152Z,69.90
2017-04-29T23:05:06.889Z,69.90
2017-04-29T23:07:35.985Z,69.50
2017-04-29T23:10:04.972Z,69.50
2017-04-29T23:12:34.245Z,69.50
2017-04-29T23:15:03.966Z,69.30
2017-04-29T23:17:32.936Z,69.60
2017-04-29T23:20:02.670Z,69.60
2017-04-29T23:22:31.660Z,70.40
2017-04-29T23:25:00.659Z,69.20
2017-04-29T23:27:29.676Z,69.40
2017-04-29T23:29:58.934Z,69.50
2017-04-29T23:32:28.051Z,70.60
2017-04-29T23:34:57.097Z,70.20
2017-04-29T23:37:27.221Z,70.00
2017-04-29T23:39:56.344Z,69.90
2017-04-29T23:42:25.347Z,70.30
2017-04-29T23:44:54.347Z,69.90
2017-04-29T23:47:23.682Z,70.10
2017-04-29T23:49:52.673Z,70.50
2017-04-29T23:52:21.687Z,70.60
2017-04-29T23:54:50.684Z,70.30
2017-04-29T23:57:20.423Z,70.60
2017-04-29T23:59:49.472Z,70.60
